createdAt,value
2022-09-26T00:01:55.546Z,85.69
2022-09-26T00:04:31.780Z,85.69
2022-09-26T00:07:01.341Z,85.80
2022-09-26T00:09:30.052Z,85.81
2022-09-26T00:11:59.071Z,86.02
2022-09-26T00:14:29.156Z,85.88
2022-09-26T00:16:57.676Z,85.93
2022-09-26T00:19:26.187Z,85.77
2022-09-26T00:21:54.752Z,85.97
2022-09-26T00:24:23.267Z,85.78
2022-09-26T00:26:51.860Z,85.73
2022-09-26T00:29:20.320Z,85.71
2022-09-26T00:31:48.962Z,85.83
2022-09-26T00:34:19.615Z,86.07
2022-09-26T00:36:50.065Z,86.02
2022-09-26T00:39:18.672Z,86.07
2022-09-26T00:41:47.173Z,86.26
2022-09-26T00:44:36.888Z,86.09
2022-09-26T00:47:17.077Z,86.04
2022-09-26T00:49:47.358Z,86.06
2022-09-26T00:52:22.475Z,86.47
2022-09-26T00:54:55.786Z,86.72
2022-09-26T00:57:28.478Z,86.80
2022-09-26T01:00:01.231Z,86.65
2022-09-26T01:02:30.042Z,86.86
2022-09-26T01:04:59.905Z,86.61
2022-09-26T01:07:29.476Z,86.26
2022-09-26T01:09:58.870Z,86.31
2022-09-26T01:12:27.880Z,86.64
2022-09-26T01:14:57.925Z,86.81
2022-09-26T01:17:27.311Z,86.59
2022-09-26T01:20:17.020Z,86.42
2022-09-26T01:23:07.844Z,86.28
2022-09-26T01:26:05.731Z,86.45
2022-09-26T01:28:53.803Z,86.86
2022-09-26T01:31:28.503Z,87.06
2022-09-26T01:34:04.392Z,87.06
2022-09-26T01:36:48.144Z,87.44
2022-09-26T01:39:30.741Z,87.38
2022-09-26T01:42:14.246Z,87.48
2022-09-26T01:44:48.797Z,87.56
2022-09-26T01:47:22.792Z,87.54
2022-09-26T01:49:58.079Z,87.62
2022-09-26T01:52:32.887Z,87.82
2022-09-26T01:55:07.931Z,87.72
2022-09-26T01:57:40.902Z,87.81
2022-09-26T02:00:12.210Z,87.73
2022-09-26T02:02:45.481Z,87.87
2022-09-26T02:05:20.340Z,88.04
2022-09-26T02:07:55.177Z,88.07
2022-09-26T02:10:28.791Z,88.08
2022-09-26T02:13:03.146Z,87.99
2022-09-26T02:15:36.289Z,88.04
2022-09-26T02:18:12.412Z,88.05
2022-09-26T02:20:47.850Z,88.18
2022-09-26T02:23:16.563Z,88.12
2022-09-26T02:25:45.075Z,87.96
2022-09-26T02:28:14.000Z,87.88
2022-09-26T02:30:46.402Z,87.78
2022-09-26T02:33:15.914Z,87.97
2022-09-26T02:35:56.968Z,88.28
2022-09-26T02:38:30.977Z,88.43
2022-09-26T02:41:21.968Z,88.46
2022-09-26T02:44:05.365Z,88.56
2022-09-26T02:46:53.445Z,88.50
2022-09-26T02:49:44.721Z,88.58
2022-09-26T02:52:21.190Z,88.60
2022-09-26T02:55:03.930Z,88.19
2022-09-26T02:57:44.299Z,88.01
2022-09-26T03:00:18.080Z,88.11
2022-09-26T03:02:55.161Z,88.13
2022-09-26T03:05:27.339Z,88.13
2022-09-26T03:08:00.781Z,87.97
2022-09-26T03:10:32.071Z,87.81
2022-09-26T03:13:06.412Z,87.70
2022-09-26T03:15:37.204Z,87.71
2022-09-26T03:18:09.884Z,87.46
2022-09-26T03:20:38.487Z,87.36
2022-09-26T03:23:07.188Z,87.53
2022-09-26T03:25:36.244Z,87.66
2022-09-26T03:28:07.106Z,87.67
2022-09-26T03:30:35.648Z,87.68
2022-09-26T03:33:23.307Z,87.76
2022-09-26T03:35:52.331Z,87.97
2022-09-26T03:38:22.109Z,88.01
2022-09-26T03:40:58.306Z,88.11
2022-09-26T03:43:45.507Z,88.29
2022-09-26T03:46:15.134Z,88.20
2022-09-26T03:48:43.732Z,88.43
2022-09-26T03:51:13.739Z,88.30
2022-09-26T03:53:44.860Z,88.30
2022-09-26T03:56:17.686Z,88.32
2022-09-26T03:58:48.398Z,88.35
2022-09-26T04:01:19.984Z,88.13
2022-09-26T04:03:51.097Z,88.17
2022-09-26T04:06:21.739Z,88.26
2022-09-26T04:08:52.242Z,88.00
2022-09-26T04:11:24.090Z,87.89
2022-09-26T04:13:53.491Z,87.91
2022-09-26T04:16:24.543Z,88.19
2022-09-26T04:19:01.366Z,88.08
2022-09-26T04:21:30.513Z,88.06
2022-09-26T04:24:00.639Z,88.10
2022-09-26T04:26:29.238Z,88.17
2022-09-26T04:28:58.445Z,88.28
2022-09-26T04:31:42.001Z,88.36
2022-09-26T04:34:14.301Z,88.33
2022-09-26T04:36:43.116Z,88.18
2022-09-26T04:39:12.832Z,88.24
2022-09-26T04:41:41.758Z,88.37
2022-09-26T04:44:12.124Z,88.84
2022-09-26T04:46:40.740Z,88.77
2022-09-26T04:49:10.548Z,88.67
2022-09-26T04:51:39.123Z,88.97
2022-09-26T04:54:07.974Z,88.98
2022-09-26T04:56:40.046Z,89.03
2022-09-26T04:59:09.283Z,89.13
2022-09-26T05:01:45.751Z,89.03
2022-09-26T05:04:26.652Z,89.01
2022-09-26T05:06:58.589Z,88.99
2022-09-26T05:09:34.282Z,89.02
2022-09-26T05:12:17.581Z,88.85
2022-09-26T05:14:47.423Z,89.01
2022-09-26T05:17:16.003Z,88.99
2022-09-26T05:19:45.631Z,88.93
2022-09-26T05:22:40.200Z,88.46
2022-09-26T05:25:28.505Z,88.71
2022-09-26T05:27:57.037Z,88.92
2022-09-26T05:30:30.580Z,88.23
2022-09-26T05:32:59.194Z,88.02
2022-09-26T05:35:27.713Z,87.60
2022-09-26T05:38:00.070Z,87.57
2022-09-26T05:41:02.006Z,87.26
2022-09-26T05:43:32.989Z,87.10
2022-09-26T05:46:03.904Z,86.88
2022-09-26T05:48:37.570Z,86.63
2022-09-26T05:51:11.856Z,86.79
2022-09-26T05:53:43.660Z,86.60
2022-09-26T05:56:18.262Z,86.52
2022-09-26T05:59:05.205Z,86.78
2022-09-26T06:01:36.590Z,86.57
2022-09-26T06:04:10.138Z,85.90
2022-09-26T06:06:48.134Z,85.76
2022-09-26T06:09:18.380Z,85.83
2022-09-26T06:12:05.532Z,85.96
2022-09-26T06:14:34.138Z,85.11
2022-09-26T06:17:02.656Z,84.21
2022-09-26T06:19:31.716Z,83.40
2022-09-26T06:22:00.278Z,82.36
2022-09-26T06:24:30.735Z,80.38
2022-09-26T06:27:01.624Z,79.38
2022-09-26T06:29:32.261Z,77.29
2022-09-26T06:32:01.431Z,76.20
2022-09-26T06:34:51.151Z,74.83
2022-09-26T06:37:44.423Z,73.66
2022-09-26T06:40:13.447Z,72.91
2022-09-26T06:42:46.143Z,72.68
2022-09-26T06:45:35.639Z,72.66
2022-09-26T06:48:18.952Z,73.12
2022-09-26T06:51:14.662Z,72.84
2022-09-26T06:53:45.336Z,72.90
2022-09-26T06:56:17.608Z,73.27
2022-09-26T06:58:46.266Z,73.41
2022-09-26T07:01:17.943Z,72.80
2022-09-26T07:04:03.969Z,71.77
2022-09-26T07:06:51.257Z,71.52
2022-09-26T07:09:20.171Z,71.49
2022-09-26T07:12:15.575Z,71.76
2022-09-26T07:14:45.753Z,71.75
2022-09-26T07:17:21.408Z,71.86
2022-09-26T07:20:10.537Z,71.66
2022-09-26T07:23:01.383Z,71.77
2022-09-26T07:25:31.024Z,71.86
2022-09-26T07:28:00.915Z,72.45
2022-09-26T07:30:38.408Z,72.66
2022-09-26T07:33:36.424Z,71.57
2022-09-26T07:36:10.203Z,70.16
2022-09-26T07:38:39.042Z,67.98
2022-09-26T07:41:10.201Z,65.45
2022-09-26T07:44:53.344Z,64.22
2022-09-26T07:46:45.111Z,63.88
2022-09-26T07:49:31.864Z,63.00
2022-09-26T07:52:32.962Z,61.43
2022-09-26T07:55:21.753Z,60.81
2022-09-26T07:58:06.583Z,60.79
2022-09-26T08:00:46.231Z,60.71
2022-09-26T08:03:28.028Z,60.87
2022-09-26T08:06:00.439Z,60.40
2022-09-26T08:08:30.249Z,60.27
2022-09-26T08:11:04.051Z,60.60
2022-09-26T08:13:46.059Z,61.21
2022-09-26T08:16:41.246Z,61.06
2022-09-26T08:19:12.967Z,61.41
2022-09-26T08:21:40.781Z,61.52
2022-09-26T08:24:09.724Z,61.37
2022-09-26T08:26:56.430Z,61.86
2022-09-26T08:29:31.482Z,62.71
2022-09-26T08:32:03.458Z,62.68
2022-09-26T08:34:34.949Z,62.34
2022-09-26T08:37:27.611Z,62.81
2022-09-26T08:40:14.269Z,62.65
2022-09-26T08:43:36.845Z,62.87
2022-09-26T08:46:46.151Z,63.91
2022-09-26T08:50:03.192Z,64.17
2022-09-26T08:52:37.165Z,64.92
2022-09-26T08:55:13.309Z,65.04
2022-09-26T08:57:44.995Z,64.97
2022-09-26T09:00:21.013Z,64.84
2022-09-26T09:03:07.829Z,64.93
2022-09-26T09:05:40.493Z,65.02
2022-09-26T09:08:14.622Z,65.46
2022-09-26T09:11:03.110Z,65.57
2022-09-26T09:13:46.584Z,65.87
2022-09-26T09:16:44.894Z,65.87
2022-09-26T09:19:41.342Z,65.48
2022-09-26T09:22:38.248Z,64.50
2022-09-26T09:25:16.463Z,64.16
2022-09-26T09:28:08.433Z,63.97
2022-09-26T09:30:43.649Z,63.12
2022-09-26T09:33:16.991Z,61.89
2022-09-26T09:36:08.708Z,61.38
2022-09-26T09:38:47.977Z,60.25
2022-09-26T09:41:35.225Z,60.10
2022-09-26T09:44:14.955Z,59.78
2022-09-26T09:46:43.904Z,59.24
2022-09-26T09:49:19.716Z,59.01
2022-09-26T09:52:10.375Z,59.16
2022-09-26T09:54:55.268Z,58.99
2022-09-26T09:57:54.342Z,60.07
2022-09-26T10:00:24.596Z,59.95
2022-09-26T10:03:04.662Z,59.70
2022-09-26T10:05:41.043Z,58.97
2022-09-26T10:08:13.798Z,58.21
2022-09-26T10:11:12.211Z,58.27
2022-09-26T10:14:02.690Z,58.17
2022-09-26T10:17:19.871Z,58.12
2022-09-26T10:20:27.283Z,58.36
2022-09-26T10:22:56.213Z,58.12
2022-09-26T10:25:26.753Z,58.56
2022-09-26T10:27:58.642Z,58.82
2022-09-26T10:30:33.518Z,58.72
2022-09-26T10:33:05.601Z,58.14
2022-09-26T10:35:46.808Z,57.14
2022-09-26T10:38:21.547Z,57.08
2022-09-26T10:40:59.004Z,56.72
2022-09-26T10:43:30.240Z,57.16
2022-09-26T10:46:09.104Z,57.78
2022-09-26T10:49:18.337Z,57.21
2022-09-26T10:52:17.585Z,56.88
2022-09-26T10:54:54.701Z,57.00
2022-09-26T10:57:29.091Z,57.39
2022-09-26T11:00:00.454Z,57.52
2022-09-26T11:02:29.324Z,58.00
2022-09-26T11:05:18.388Z,57.91
2022-09-26T11:08:13.511Z,58.01
2022-09-26T11:10:55.310Z,58.56
2022-09-26T11:13:45.845Z,59.29
2022-09-26T11:16:18.553Z,59.90
2022-09-26T11:18:56.532Z,59.69
2022-09-26T11:21:33.046Z,59.19
2022-09-26T11:24:10.949Z,59.98
2022-09-26T11:26:49.003Z,60.16
2022-09-26T11:29:24.498Z,60.24
2022-09-26T11:32:23.598Z,60.58
2022-09-26T11:35:01.717Z,60.63
2022-09-26T11:38:04.874Z,60.60
2022-09-26T11:41:06.828Z,60.13
2022-09-26T11:43:51.211Z,60.15
2022-09-26T11:46:49.681Z,59.86
2022-09-26T11:50:02.219Z,60.27
2022-09-26T11:52:58.867Z,60.17
2022-09-26T11:55:36.589Z,60.12
2022-09-26T11:58:16.650Z,60.14
2022-09-26T12:00:56.332Z,60.27
2022-09-26T12:03:45.010Z,60.29
2022-09-26T12:06:25.223Z,60.38
2022-09-26T12:09:11.577Z,60.68
2022-09-26T12:11:52.542Z,60.66
2022-09-26T12:14:38.354Z,60.67
2022-09-26T12:17:14.384Z,60.93
2022-09-26T12:19:51.719Z,60.88
2022-09-26T12:22:30.367Z,60.95
2022-09-26T12:25:16.638Z,61.08
2022-09-26T12:27:58.695Z,61.01
2022-09-26T12:30:35.170Z,61.13
2022-09-26T12:33:20.418Z,61.73
2022-09-26T12:35:58.309Z,63.11
2022-09-26T12:38:41.915Z,64.24
2022-09-26T12:41:50.088Z,65.97
2022-09-26T12:44:34.143Z,66.79
2022-09-26T12:47:15.014Z,67.54
2022-09-26T12:50:01.008Z,67.97
2022-09-26T12:52:51.088Z,68.70
2022-09-26T12:55:31.597Z,69.62
2022-09-26T12:58:11.247Z,70.22
2022-09-26T13:00:48.708Z,70.87
2022-09-26T13:03:35.842Z,71.44
2022-09-26T13:06:33.567Z,72.00
2022-09-26T13:09:15.291Z,72.68
2022-09-26T13:11:54.910Z,73.22
2022-09-26T13:14:48.147Z,73.77
2022-09-26T13:17:21.187Z,73.32
2022-09-26T13:19:55.437Z,73.11
2022-09-26T13:22:36.115Z,73.44
2022-09-26T13:25:18.270Z,73.48
2022-09-26T13:27:55.568Z,73.72
2022-09-26T13:30:28.169Z,74.41
2022-09-26T13:33:02.808Z,75.05
2022-09-26T13:35:35.237Z,75.52
2022-09-26T13:38:34.034Z,75.44
2022-09-26T13:41:14.972Z,75.12
2022-09-26T13:43:52.926Z,75.81
2022-09-26T13:46:30.611Z,76.28
2022-09-26T13:49:12.996Z,76.39
2022-09-26T13:51:51.080Z,76.17
2022-09-26T13:54:27.680Z,76.17
2022-09-26T13:57:00.093Z,76.45
2022-09-26T13:59:51.719Z,76.80
2022-09-26T14:02:24.037Z,77.65
2022-09-26T14:05:17.064Z,78.46
2022-09-26T14:08:12.593Z,78.97
2022-09-26T14:10:52.599Z,78.86
2022-09-26T14:13:33.936Z,79.11
2022-09-26T14:16:04.777Z,78.57
2022-09-26T14:18:51.582Z,78.85
2022-09-26T14:21:35.798Z,79.38
2022-09-26T14:24:33.110Z,79.62
2022-09-26T14:27:24.612Z,79.92
2022-09-26T14:29:58.390Z,80.47
2022-09-26T14:32:39.906Z,80.51
2022-09-26T14:35:20.800Z,80.48
2022-09-26T14:37:55.016Z,80.70
2022-09-26T14:40:31.487Z,80.84
2022-09-26T14:43:12.328Z,80.62
2022-09-26T14:45:51.529Z,80.73
2022-09-26T14:48:31.942Z,80.86
2022-09-26T14:51:04.234Z,80.81
2022-09-26T14:53:42.837Z,80.81
2022-09-26T14:56:15.731Z,80.88
2022-09-26T14:58:50.309Z,80.94
2022-09-26T15:01:28.132Z,80.72
2022-09-26T15:04:04.496Z,81.11
2022-09-26T15:06:41.999Z,80.94
2022-09-26T15:09:18.523Z,80.71
2022-09-26T15:11:51.982Z,80.77
2022-09-26T15:14:36.040Z,80.71
2022-09-26T15:17:06.574Z,80.32
2022-09-26T15:19:42.153Z,80.00
2022-09-26T15:22:16.270Z,80.15
2022-09-26T15:25:22.906Z,80.47
2022-09-26T15:27:53.740Z,80.33
2022-09-26T15:30:26.383Z,79.73
2022-09-26T15:32:57.840Z,79.82
2022-09-26T15:35:27.355Z,79.63
2022-09-26T15:38:00.068Z,79.93
2022-09-26T15:40:30.860Z,80.15
2022-09-26T15:43:09.051Z,80.13
2022-09-26T15:45:57.821Z,80.21
2022-09-26T15:48:29.079Z,80.21
2022-09-26T15:51:03.449Z,80.30
2022-09-26T15:53:36.790Z,79.81
2022-09-26T15:56:09.182Z,79.69
2022-09-26T15:58:43.740Z,79.78
2022-09-26T16:01:16.865Z,79.64
2022-09-26T16:03:56.592Z,79.58
2022-09-26T16:06:29.002Z,79.67
2022-09-26T16:09:06.760Z,79.72
2022-09-26T16:11:46.960Z,79.75
2022-09-26T16:14:26.059Z,79.74
2022-09-26T16:17:02.357Z,79.78
2022-09-26T16:19:34.598Z,79.94
2022-09-26T16:22:44.720Z,80.18
2022-09-26T16:25:33.821Z,80.57
2022-09-26T16:28:39.300Z,80.51
2022-09-26T16:31:22.581Z,80.47
2022-09-26T16:33:53.558Z,80.61
2022-09-26T16:36:23.940Z,80.93
2022-09-26T16:38:57.667Z,81.15
2022-09-26T16:41:59.960Z,81.30
2022-09-26T16:44:26.122Z,81.35
2022-09-26T16:47:01.268Z,81.51
2022-09-26T16:49:41.579Z,81.56
2022-09-26T16:52:20.149Z,81.55
2022-09-26T16:54:50.849Z,81.54
2022-09-26T16:57:22.319Z,81.77
2022-09-26T16:59:52.333Z,81.92
2022-09-26T17:02:21.933Z,82.38
2022-09-26T17:04:53.531Z,82.85
2022-09-26T17:07:23.410Z,83.00
2022-09-26T17:09:51.972Z,82.46
2022-09-26T17:12:22.109Z,82.62
2022-09-26T17:14:52.588Z,82.99
2022-09-26T17:17:25.185Z,83.32
2022-09-26T17:19:59.172Z,83.61
2022-09-26T17:22:28.920Z,83.59
2022-09-26T17:24:58.740Z,83.60
2022-09-26T17:27:33.572Z,83.79
2022-09-26T17:30:04.266Z,83.56
2022-09-26T17:32:36.184Z,83.35
2022-09-26T17:35:12.820Z,83.54
2022-09-26T17:37:41.453Z,83.94
2022-09-26T17:40:16.513Z,84.02
2022-09-26T17:42:45.316Z,84.26
2022-09-26T17:45:14.192Z,84.39
2022-09-26T17:47:42.972Z,84.52
2022-09-26T17:50:19.300Z,84.58
2022-09-26T17:52:47.899Z,84.91
2022-09-26T17:55:18.205Z,84.88
2022-09-26T17:57:46.846Z,85.12
2022-09-26T18:00:18.838Z,85.32
2022-09-26T18:02:52.479Z,85.36
2022-09-26T18:05:25.123Z,85.29
2022-09-26T18:07:57.296Z,85.32
2022-09-26T18:10:29.888Z,85.28
2022-09-26T18:13:03.292Z,85.30
2022-09-26T18:15:31.929Z,84.99
2022-09-26T18:18:01.708Z,84.70
2022-09-26T18:20:36.495Z,85.33
2022-09-26T18:23:06.784Z,85.28
2022-09-26T18:25:51.108Z,85.28
2022-09-26T18:28:22.779Z,85.41
2022-09-26T18:30:58.422Z,85.86
2022-09-26T18:33:28.337Z,86.00
2022-09-26T18:35:58.219Z,85.75
2022-09-26T18:38:30.359Z,85.69
2022-09-26T18:41:00.003Z,85.80
2022-09-26T18:43:31.192Z,86.29
2022-09-26T18:46:00.034Z,86.38
2022-09-26T18:48:33.257Z,86.31
2022-09-26T18:51:02.728Z,86.29
2022-09-26T18:53:36.460Z,86.63
2022-09-26T18:56:23.801Z,86.44
2022-09-26T18:58:53.466Z,86.28
2022-09-26T19:01:27.535Z,86.75
2022-09-26T19:04:00.410Z,86.54
2022-09-26T19:06:54.175Z,86.24
2022-09-26T19:09:24.393Z,86.53
2022-09-26T19:11:53.142Z,86.87
2022-09-26T19:14:24.629Z,87.28
2022-09-26T19:16:54.421Z,87.01
2022-09-26T19:19:23.624Z,87.05
2022-09-26T19:21:55.211Z,87.15
2022-09-26T19:24:32.144Z,86.87
2022-09-26T19:27:06.213Z,86.44
2022-09-26T19:29:39.977Z,86.24
2022-09-26T19:32:18.788Z,86.46
2022-09-26T19:34:51.117Z,86.70
2022-09-26T19:37:19.919Z,86.69
2022-09-26T19:39:48.691Z,86.89
2022-09-26T19:42:17.806Z,87.06
2022-09-26T19:44:54.084Z,87.11
2022-09-26T19:47:35.297Z,87.08
2022-09-26T19:50:18.079Z,86.93
2022-09-26T19:52:50.140Z,86.67
2022-09-26T19:55:26.818Z,86.78
2022-09-26T19:58:17.336Z,86.70
2022-09-26T20:00:49.154Z,86.56
2022-09-26T20:03:19.653Z,86.64
2022-09-26T20:05:52.324Z,86.72
2022-09-26T20:08:27.919Z,86.87
2022-09-26T20:10:58.592Z,86.90
2022-09-26T20:13:47.583Z,86.81
2022-09-26T20:16:16.404Z,86.65
2022-09-26T20:18:46.006Z,86.69
2022-09-26T20:21:17.205Z,86.74
2022-09-26T20:23:46.746Z,86.78
2022-09-26T20:26:16.632Z,86.81
2022-09-26T20:28:45.361Z,86.99
2022-09-26T20:31:22.051Z,87.25
2022-09-26T20:33:51.564Z,87.21
2022-09-26T20:36:24.690Z,87.37
2022-09-26T20:38:55.247Z,87.59
2022-09-26T20:41:28.829Z,87.64
2022-09-26T20:44:01.438Z,87.43
2022-09-26T20:46:33.374Z,87.38
2022-09-26T20:49:24.610Z,87.10
2022-09-26T20:51:53.262Z,87.55
2022-09-26T20:54:29.345Z,87.55
2022-09-26T20:56:58.758Z,87.29
2022-09-26T20:59:28.647Z,87.53
2022-09-26T21:01:59.082Z,87.55
2022-09-26T21:04:31.468Z,87.50
2022-09-26T21:07:00.071Z,87.46
2022-09-26T21:09:28.700Z,87.68
2022-09-26T21:11:57.337Z,87.90
2022-09-26T21:14:25.863Z,87.86
2022-09-26T21:16:55.111Z,87.81
2022-09-26T21:19:27.149Z,87.99
2022-09-26T21:22:02.899Z,88.26
2022-09-26T21:24:44.741Z,88.21
2022-09-26T21:27:13.776Z,88.21
2022-09-26T21:29:42.906Z,88.22
2022-09-26T21:32:16.725Z,88.27
2022-09-26T21:34:55.766Z,88.55
2022-09-26T21:37:30.675Z,88.54
2022-09-26T21:39:59.456Z,88.45
2022-09-26T21:42:28.067Z,88.46
2022-09-26T21:45:02.013Z,88.63
2022-09-26T21:47:30.925Z,88.55
2022-09-26T21:49:59.676Z,88.43
2022-09-26T21:52:35.118Z,88.40
2022-09-26T21:55:06.022Z,88.39
2022-09-26T21:57:38.012Z,88.17
2022-09-26T22:00:09.472Z,88.16
2022-09-26T22:02:42.153Z,88.47
2022-09-26T22:05:12.149Z,88.72
2022-09-26T22:07:40.655Z,88.80
2022-09-26T22:10:09.829Z,88.63
2022-09-26T22:12:38.331Z,88.45
2022-09-26T22:15:09.206Z,88.33
2022-09-26T22:17:37.820Z,88.19
2022-09-26T22:20:07.808Z,88.43
2022-09-26T22:22:37.105Z,88.65
2022-09-26T22:25:07.221Z,88.46
2022-09-26T22:27:35.971Z,88.17
2022-09-26T22:30:05.960Z,88.02
2022-09-26T22:32:34.757Z,88.37
2022-09-26T22:35:04.094Z,88.49
2022-09-26T22:37:33.172Z,88.71
2022-09-26T22:40:02.724Z,88.76
2022-09-26T22:42:31.732Z,88.53
2022-09-26T22:45:00.197Z,88.61
2022-09-26T22:47:28.877Z,88.71
2022-09-26T22:49:57.756Z,88.70
2022-09-26T22:52:26.358Z,88.77
2022-09-26T22:54:55.539Z,88.59
2022-09-26T22:57:24.139Z,88.67
2022-09-26T22:59:52.763Z,88.26
2022-09-26T23:02:21.323Z,87.98
2022-09-26T23:04:50.229Z,87.60
2022-09-26T23:07:19.934Z,87.54
2022-09-26T23:09:48.695Z,87.36
2022-09-26T23:12:18.351Z,87.43
2022-09-26T23:14:46.991Z,87.69
2022-09-26T23:17:16.150Z,87.87
2022-09-26T23:19:45.161Z,87.68
2022-09-26T23:22:14.711Z,87.73
2022-09-26T23:24:43.324Z,87.69
2022-09-26T23:27:11.926Z,87.61
2022-09-26T23:29:41.125Z,87.67
2022-09-26T23:32:09.693Z,87.75
2022-09-26T23:34:38.261Z,87.55
2022-09-26T23:37:06.834Z,87.60
2022-09-26T23:39:35.433Z,87.66
2022-09-26T23:42:04.702Z,87.76
2022-09-26T23:44:34.312Z,87.94
2022-09-26T23:47:03.643Z,88.14
2022-09-26T23:49:32.241Z,88.24
2022-09-26T23:52:01.619Z,88.24
2022-09-26T23:54:30.498Z,88.17
2022-09-26T23:56:59.907Z,88.29
2022-09-26T23:59:28.585Z,88.53
